Hovedside
METAR-TAF:

METAR-TAF

Lufthavner :

Baker City, Oregon, USA

breddegrad: 44-50-14N, lengdegrad: 117-48-33W, høyde over havet: 1028 m

Gjeldene værobservasjon

Denne rapporten ble laget for 59 minutter siden, klokken 04:53 UTC
Vind 10 kt fra Sørøst
Temperatur -2°C
Luftfuktighet 69%
Trykk 1024 hPa
Sikt: 16.1 km
Overskyet i en høyde av 8000 ft

METAR: KBKE 180453Z AUTO 13010KT 10SM OVC080 M02/M07 A3025 RMK AO2 SLP284 T10171067

Tid: 21:52 (05:52 UTC)

Varsel

Denne rapporten ble laget for 32 minutter siden, klokken 05:20 UTC
Varsel gyldig fra 18. klokken 06 UTC til 19. klokken 06 UTC
Vind 6 kt fra Øst-sørøst
Sikt: 10 km
Overskyet i en høyde av 4000 ft
Fra 18. klokken 1300 UTC
Vind 12 kt fra Øst-sørøst
Sikt: 2.4 km
Overskyet i en høyde av 2500 ft
lette snøbyger
Fra 18. klokken 2200 UTC
Vind 7 kt fra Øst
Sikt: 10 km
Overskyet i en høyde av 5000 ft

TAF: KBKE 180520Z 1806/1906 12006KT P6SM OVC040 FM181300 11012KT 1 1/2SM -SHSN OVC025 FM182200 10007KT P6SM OVC050

Værobservasjoner og værvarsel for over 4000 flyplasser (METAR- og TAF-rapporter).

Tilgjengelige stasjoner er representert av de røde og gule prikkene på kartet.

Hold musepekeren over prikken for å se navnet på stasjonen.

Klikk så for å se værobservasjoner og -varsler.

For å forandre kartet kan du klikke på den grønne knappen med svart kryss for å zoome inn, på den grønne knappen med strek for å zoome ut, eller på de grønne pilene for å se tilstøtende kart.


METAR-TAF: